sensor_id;sensor_type;location;lat;lon;timestamp;temperature;humidity
3778;DHT22;1904;50.076;8.660;2022-07-22T00:03:56;18.10;1.00
3778;DHT22;1904;50.076;8.660;2022-07-22T00:06:43;18.00;1.00
3778;DHT22;1904;50.076;8.660;2022-07-22T00:09:14;18.00;1.00
3778;DHT22;1904;50.076;8.660;2022-07-22T00:11:50;17.90;1.00
3778;DHT22;1904;50.076;8.660;2022-07-22T00:14:26;17.90;1.00
3778;DHT22;1904;50.076;8.660;2022-07-22T00:16:56;17.90;1.00
3778;DHT22;1904;50.076;8.660;2022-07-22T00:19:22;17.90;1.00
3778;DHT22;1904;50.076;8.660;2022-07-22T00:21:53;17.80;1.00
3778;DHT22;1904;50.076;8.660;2022-07-22T00:24:20;17.80;1.00
3778;DHT22;1904;50.076;8.660;2022-07-22T00:26:56;17.70;1.00
3778;DHT22;1904;50.076;8.660;2022-07-22T00:29:26;17.70;1.00
3778;DHT22;1904;50.076;8.660;2022-07-22T00:31:52;17.50;1.00
3778;DHT22;1904;50.076;8.660;2022-07-22T00:34:17;17.50;1.00
3778;DHT22;1904;50.076;8.660;2022-07-22T00:36:50;17.50;1.00
3778;DHT22;1904;50.076;8.660;2022-07-22T00:39:26;17.50;1.00
3778;DHT22;1904;50.076;8.660;2022-07-22T00:42:20;17.50;1.00
3778;DHT22;1904;50.076;8.660;2022-07-22T00:44:50;17.40;1.00
3778;DHT22;1904;50.076;8.660;2022-07-22T00:47:20;17.40;1.00
3778;DHT22;1904;50.076;8.660;2022-07-22T00:49:50;17.30;1.00
3778;DHT22;1904;50.076;8.660;2022-07-22T00:52:21;17.40;1.00
3778;DHT22;1904;50.076;8.660;2022-07-22T00:54:47;17.30;1.00
3778;DHT22;1904;50.076;8.660;2022-07-22T00:57:20;17.30;1.00
3778;DHT22;1904;50.076;8.660;2022-07-22T00:59:50;17.20;1.00
3778;DHT22;1904;50.076;8.660;2022-07-22T01:02:16;17.20;1.00
3778;DHT22;1904;50.076;8.660;2022-07-22T01:07:51;17.10;1.00
3778;DHT22;1904;50.076;8.660;2022-07-22T01:10:38;17.00;1.00
3778;DHT22;1904;50.076;8.660;2022-07-22T01:13:14;16.90;1.00
3778;DHT22;1904;50.076;8.660;2022-07-22T01:15:56;16.90;1.00
3778;DHT22;1904;50.076;8.660;2022-07-22T01:18:44;17.00;1.00
3778;DHT22;1904;50.076;8.660;2022-07-22T01:21:15;16.90;1.00
3778;DHT22;1904;50.076;8.660;2022-07-22T01:23:50;16.80;1.00
3778;DHT22;1904;50.076;8.660;2022-07-22T01:26:16;16.70;1.00
3778;DHT22;1904;50.076;8.660;2022-07-22T01:28:50;16.70;1.00
3778;DHT22;1904;50.076;8.660;2022-07-22T01:31:26;16.70;1.00
3778;DHT22;1904;50.076;8.660;2022-07-22T01:34:04;16.70;1.00
3778;DHT22;1904;50.076;8.660;2022-07-22T01:36:30;16.60;1.00
3778;DHT22;1904;50.076;8.660;2022-07-22T01:38:56;16.70;1.00
3778;DHT22;1904;50.076;8.660;2022-07-22T01:41:32;16.60;1.00
3778;DHT22;1904;50.076;8.660;2022-07-22T01:43:58;16.60;1.00
3778;DHT22;1904;50.076;8.660;2022-07-22T01:49:26;16.50;1.00
3778;DHT22;1904;50.076;8.660;2022-07-22T01:51:56;16.50;1.00
3778;DHT22;1904;50.076;8.660;2022-07-22T01:54:22;16.50;1.00
3778;DHT22;1904;50.076;8.660;2022-07-22T01:56:50;16.50;1.00
3778;DHT22;1904;50.076;8.660;2022-07-22T01:59:38;16.40;1.00
3778;DHT22;1904;50.076;8.660;2022-07-22T02:05:25;16.30;1.00
3778;DHT22;1904;50.076;8.660;2022-07-22T02:08:09;16.20;1.00
3778;DHT22;1904;50.076;8.660;2022-07-22T02:10:36;16.20;1.00
3778;DHT22;1904;50.076;8.660;2022-07-22T02:13:20;16.20;2.90
3778;DHT22;1904;50.076;8.660;2022-07-22T02:15:50;16.20;3.10
3778;DHT22;1904;50.076;8.660;2022-07-22T02:18:18;16.20;1.00
3778;DHT22;1904;50.076;8.660;2022-07-22T02:20:45;16.20;1.70
3778;DHT22;1904;50.076;8.660;2022-07-22T02:23:14;16.20;1.00
3778;DHT22;1904;50.076;8.660;2022-07-22T02:25:50;16.20;1.00
3778;DHT22;1904;50.076;8.660;2022-07-22T02:28:16;16.20;3.40
3778;DHT22;1904;50.076;8.660;2022-07-22T02:30:44;16.10;3.80
3778;DHT22;1904;50.076;8.660;2022-07-22T02:33:38;16.00;5.50
3778;DHT22;1904;50.076;8.660;2022-07-22T02:36:20;16.00;9.60
3778;DHT22;1904;50.076;8.660;2022-07-22T02:38:50;16.00;8.10
3778;DHT22;1904;50.076;8.660;2022-07-22T02:41:20;16.00;7.80
3778;DHT22;1904;50.076;8.660;2022-07-22T02:43:50;16.00;4.70
3778;DHT22;1904;50.076;8.660;2022-07-22T02:46:21;16.00;5.10
3778;DHT22;1904;50.076;8.660;2022-07-22T02:48:47;16.00;5.20
3778;DHT22;1904;50.076;8.660;2022-07-22T02:51:13;15.90;5.70
3778;DHT22;1904;50.076;8.660;2022-07-22T02:54:08;15.90;5.10
3778;DHT22;1904;50.076;8.660;2022-07-22T02:56:38;15.90;3.40
3778;DHT22;1904;50.076;8.660;2022-07-22T02:59:08;15.90;2.10
3778;DHT22;1904;50.076;8.660;2022-07-22T03:01:38;15.80;2.30
3778;DHT22;1904;50.076;8.660;2022-07-22T03:04:20;15.70;3.20
3778;DHT22;1904;50.076;8.660;2022-07-22T03:06:56;15.70;9.10
3778;DHT22;1904;50.076;8.660;2022-07-22T03:09:32;15.70;7.50
3778;DHT22;1904;50.076;8.660;2022-07-22T03:12:14;15.70;5.80
3778;DHT22;1904;50.076;8.660;2022-07-22T03:14:56;15.70;3.10
3778;DHT22;1904;50.076;8.660;2022-07-22T03:17:26;15.60;6.60
3778;DHT22;1904;50.076;8.660;2022-07-22T03:20:20;15.60;5.70
3778;DHT22;1904;50.076;8.660;2022-07-22T03:22:50;15.60;4.50
3778;DHT22;1904;50.076;8.660;2022-07-22T03:25:26;15.50;5.00
3778;DHT22;1904;50.076;8.660;2022-07-22T03:27:52;15.50;8.50
3778;DHT22;1904;50.076;8.660;2022-07-22T03:30:20;15.50;7.50
3778;DHT22;1904;50.076;8.660;2022-07-22T03:32:46;15.50;5.20
3778;DHT22;1904;50.076;8.660;2022-07-22T03:35:15;15.50;4.50
3778;DHT22;1904;50.076;8.660;2022-07-22T03:37:50;15.50;4.30
3778;DHT22;1904;50.076;8.660;2022-07-22T03:44:08;15.50;8.30
3778;DHT22;1904;50.076;8.660;2022-07-22T03:46:34;15.50;7.40
3778;DHT22;1904;50.076;8.660;2022-07-22T03:49:08;15.50;7.40
3778;DHT22;1904;50.076;8.660;2022-07-22T03:51:38;15.50;12.20
3778;DHT22;1904;50.076;8.660;2022-07-22T03:54:14;15.50;13.60
3778;DHT22;1904;50.076;8.660;2022-07-22T03:56:44;15.60;19.10
3778;DHT22;1904;50.076;8.660;2022-07-22T04:02:20;15.80;18.90
3778;DHT22;1904;50.076;8.660;2022-07-22T04:04:50;15.90;16.90
3778;DHT22;1904;50.076;8.660;2022-07-22T04:07:16;16.00;20.20
3778;DHT22;1904;50.076;8.660;2022-07-22T04:09:44;16.10;22.30
3778;DHT22;1904;50.076;8.660;2022-07-22T04:12:14;16.20;24.10
3778;DHT22;1904;50.076;8.660;2022-07-22T04:14:40;16.30;24.30
3778;DHT22;1904;50.076;8.660;2022-07-22T04:17:08;16.40;21.70
3778;DHT22;1904;50.076;8.660;2022-07-22T04:19:34;16.50;22.50
3778;DHT22;1904;50.076;8.660;2022-07-22T04:22:08;16.60;22.50
3778;DHT22;1904;50.076;8.660;2022-07-22T04:24:50;16.70;16.10
3778;DHT22;1904;50.076;8.660;2022-07-22T04:27:16;16.90;12.00
3778;DHT22;1904;50.076;8.660;2022-07-22T04:29:44;17.00;4.70
3778;DHT22;1904;50.076;8.660;2022-07-22T04:32:10;17.10;3.40
3778;DHT22;1904;50.076;8.660;2022-07-22T04:34:35;17.20;1.00
3778;DHT22;1904;50.076;8.660;2022-07-22T04:37:08;17.30;1.00
3778;DHT22;1904;50.076;8.660;2022-07-22T04:39:38;17.40;1.00
3778;DHT22;1904;50.076;8.660;2022-07-22T04:42:04;17.50;1.00
3778;DHT22;1904;50.076;8.660;2022-07-22T04:44:50;17.50;1.00
3778;DHT22;1904;50.076;8.660;2022-07-22T04:47:20;17.60;1.00
3778;DHT22;1904;50.076;8.660;2022-07-22T04:49:56;17.80;1.00
3778;DHT22;1904;50.076;8.660;2022-07-22T04:52:22;17.80;1.00
3778;DHT22;1904;50.076;8.660;2022-07-22T04:54:50;17.90;1.00
3778;DHT22;1904;50.076;8.660;2022-07-22T04:57:16;18.00;1.00
3778;DHT22;1904;50.076;8.660;2022-07-22T04:59:50;18.10;1.00
3778;DHT22;1904;50.076;8.660;2022-07-22T05:02:20;18.20;1.00
3778;DHT22;1904;50.076;8.660;2022-07-22T05:05:08;18.30;1.00
3778;DHT22;1904;50.076;8.660;2022-07-22T05:07:33;18.40;1.00
3778;DHT22;1904;50.076;8.660;2022-07-22T05:10:03;18.50;1.00
3778;DHT22;1904;50.076;8.660;2022-07-22T05:12:32;18.50;1.00
3778;DHT22;1904;50.076;8.660;2022-07-22T05:15:20;18.50;1.00
3778;DHT22;1904;50.076;8.660;2022-07-22T05:17:45;18.70;1.00
3778;DHT22;1904;50.076;8.660;2022-07-22T05:20:32;18.90;1.00
3778;DHT22;1904;50.076;8.660;2022-07-22T05:22:57;19.00;1.00
3778;DHT22;1904;50.076;8.660;2022-07-22T05:25:27;19.10;1.00
3778;DHT22;1904;50.076;8.660;2022-07-22T05:27:56;19.20;1.00
3778;DHT22;1904;50.076;8.660;2022-07-22T05:30:26;19.40;1.00
3778;DHT22;1904;50.076;8.660;2022-07-22T05:33:08;19.50;1.00
3778;DHT22;1904;50.076;8.660;2022-07-22T05:35:34;19.60;1.00
3778;DHT22;1904;50.076;8.660;2022-07-22T05:37:59;19.80;1.00
3778;DHT22;1904;50.076;8.660;2022-07-22T05:40:26;19.90;1.00
3778;DHT22;1904;50.076;8.660;2022-07-22T05:42:52;20.10;1.00
3778;DHT22;1904;50.076;8.660;2022-07-22T05:45:32;20.30;1.00
3778;DHT22;1904;50.076;8.660;2022-07-22T05:47:58;20.50;1.00
3778;DHT22;1904;50.076;8.660;2022-07-22T05:53:50;20.70;1.00
3778;DHT22;1904;50.076;8.660;2022-07-22T05:56:16;20.70;1.00
3778;DHT22;1904;50.076;8.660;2022-07-22T05:58:44;20.70;1.00
3778;DHT22;1904;50.076;8.660;2022-07-22T06:01:25;20.70;1.00
3778;DHT22;1904;50.076;8.660;2022-07-22T06:03:56;20.60;1.00
3778;DHT22;1904;50.076;8.660;2022-07-22T06:06:32;20.60;1.00
3778;DHT22;1904;50.076;8.660;2022-07-22T06:09:08;20.70;1.00
3778;DHT22;1904;50.076;8.660;2022-07-22T06:11:44;20.70;1.00
3778;DHT22;1904;50.076;8.660;2022-07-22T06:14:17;20.80;1.00
3778;DHT22;1904;50.076;8.660;2022-07-22T06:16:58;21.00;1.00
3778;DHT22;1904;50.076;8.660;2022-07-22T06:19:44;21.20;1.00
3778;DHT22;1904;50.076;8.660;2022-07-22T06:22:10;21.30;1.00
3778;DHT22;1904;50.076;8.660;2022-07-22T06:24:50;21.40;1.00
3778;DHT22;1904;50.076;8.660;2022-07-22T06:27:32;21.50;1.00
3778;DHT22;1904;50.076;8.660;2022-07-22T06:30:09;21.60;1.00
3778;DHT22;1904;50.076;8.660;2022-07-22T06:32:40;21.80;1.00
3778;DHT22;1904;50.076;8.660;2022-07-22T06:35:06;22.00;1.00
3778;DHT22;1904;50.076;8.660;2022-07-22T06:37:32;22.20;1.00
3778;DHT22;1904;50.076;8.660;2022-07-22T06:40:03;22.40;1.00
3778;DHT22;1904;50.076;8.660;2022-07-22T06:42:50;22.70;1.00
3778;DHT22;1904;50.076;8.660;2022-07-22T06:45:20;23.00;1.00
3778;DHT22;1904;50.076;8.660;2022-07-22T06:47:50;23.20;1.00
3778;DHT22;1904;50.076;8.660;2022-07-22T06:50:16;23.40;1.00
3778;DHT22;1904;50.076;8.660;2022-07-22T06:52:42;23.70;1.00
3778;DHT22;1904;50.076;8.660;2022-07-22T06:55:38;23.90;1.00
3778;DHT22;1904;50.076;8.660;2022-07-22T06:58:08;24.10;1.00
3778;DHT22;1904;50.076;8.660;2022-07-22T07:00:38;24.20;1.00
3778;DHT22;1904;50.076;8.660;2022-07-22T07:03:14;24.30;1.00
3778;DHT22;1904;50.076;8.660;2022-07-22T07:05:50;24.40;1.00
3778;DHT22;1904;50.076;8.660;2022-07-22T07:08:20;24.20;1.00
3778;DHT22;1904;50.076;8.660;2022-07-22T07:10:46;24.20;1.00
3778;DHT22;1904;50.076;8.660;2022-07-22T07:13:14;24.10;1.00
3778;DHT22;1904;50.076;8.660;2022-07-22T07:15:40;24.00;1.00
3778;DHT22;1904;50.076;8.660;2022-07-22T07:18:08;24.00;1.00
3778;DHT22;1904;50.076;8.660;2022-07-22T07:20:34;24.00;1.00
3778;DHT22;1904;50.076;8.660;2022-07-22T07:23:08;24.10;1.00
3778;DHT22;1904;50.076;8.660;2022-07-22T07:25:50;24.10;1.00
3778;DHT22;1904;50.076;8.660;2022-07-22T07:28:20;24.20;1.00
3778;DHT22;1904;50.076;8.660;2022-07-22T07:31:14;24.20;1.00
3778;DHT22;1904;50.076;8.660;2022-07-22T07:33:40;24.10;1.00
3778;DHT22;1904;50.076;8.660;2022-07-22T07:36:26;24.20;1.00
3778;DHT22;1904;50.076;8.660;2022-07-22T07:39:02;24.10;1.00
3778;DHT22;1904;50.076;8.660;2022-07-22T07:41:32;24.00;1.00
3778;DHT22;1904;50.076;8.660;2022-07-22T07:44:02;24.10;1.00
3778;DHT22;1904;50.076;8.660;2022-07-22T07:46:28;24.10;1.00
3778;DHT22;1904;50.076;8.660;2022-07-22T07:48:56;24.10;1.00
3778;DHT22;1904;50.076;8.660;2022-07-22T07:51:26;24.10;1.00
3778;DHT22;1904;50.076;8.660;2022-07-22T07:53:52;24.20;1.00
3778;DHT22;1904;50.076;8.660;2022-07-22T07:56:20;24.20;1.00
3778;DHT22;1904;50.076;8.660;2022-07-22T07:58:50;24.30;1.00
3778;DHT22;1904;50.076;8.660;2022-07-22T08:01:20;24.30;1.00
3778;DHT22;1904;50.076;8.660;2022-07-22T08:03:50;24.20;1.00
3778;DHT22;1904;50.076;8.660;2022-07-22T08:06:20;24.20;1.00
3778;DHT22;1904;50.076;8.660;2022-07-22T08:08:50;24.10;1.00
3778;DHT22;1904;50.076;8.660;2022-07-22T08:11:20;24.00;1.00
3778;DHT22;1904;50.076;8.660;2022-07-22T08:14:02;23.90;1.00
3778;DHT22;1904;50.076;8.660;2022-07-22T08:16:44;23.90;1.00
3778;DHT22;1904;50.076;8.660;2022-07-22T08:19:14;24.00;1.00
3778;DHT22;1904;50.076;8.660;2022-07-22T08:21:56;24.00;1.00
3778;DHT22;1904;50.076;8.660;2022-07-22T08:24:26;24.10;1.00
3778;DHT22;1904;50.076;8.660;2022-07-22T08:26:56;24.20;1.00
3778;DHT22;1904;50.076;8.660;2022-07-22T08:29:22;24.20;1.00
3778;DHT22;1904;50.076;8.660;2022-07-22T08:31:50;24.30;1.00
3778;DHT22;1904;50.076;8.660;2022-07-22T08:34:16;24.30;1.00
3778;DHT22;1904;50.076;8.660;2022-07-22T08:36:42;24.30;1.00
3778;DHT22;1904;50.076;8.660;2022-07-22T08:39:20;24.40;1.00
3778;DHT22;1904;50.076;8.660;2022-07-22T08:41:46;24.50;1.00
3778;DHT22;1904;50.076;8.660;2022-07-22T08:44:20;24.60;1.00
3778;DHT22;1904;50.076;8.660;2022-07-22T08:46:46;24.60;1.00
3778;DHT22;1904;50.076;8.660;2022-07-22T08:49:20;24.80;1.00
3778;DHT22;1904;50.076;8.660;2022-07-22T08:51:50;24.80;1.00
3778;DHT22;1904;50.076;8.660;2022-07-22T08:54:16;24.90;1.00
3778;DHT22;1904;50.076;8.660;2022-07-22T08:56:48;24.90;1.00
3778;DHT22;1904;50.076;8.660;2022-07-22T08:59:20;25.00;1.00
3778;DHT22;1904;50.076;8.660;2022-07-22T09:05:15;24.80;1.00
3778;DHT22;1904;50.076;8.660;2022-07-22T09:07:50;24.90;1.00
3778;DHT22;1904;50.076;8.660;2022-07-22T09:10:20;24.80;1.00
3778;DHT22;1904;50.076;8.660;2022-07-22T09:12:54;24.80;1.00
3778;DHT22;1904;50.076;8.660;2022-07-22T09:15:31;24.90;1.00
3778;DHT22;1904;50.076;8.660;2022-07-22T09:18:14;24.90;1.00
3778;DHT22;1904;50.076;8.660;2022-07-22T09:20:44;25.10;1.00
3778;DHT22;1904;50.076;8.660;2022-07-22T09:23:20;25.30;1.00
3778;DHT22;1904;50.076;8.660;2022-07-22T09:25:50;25.40;1.00
3778;DHT22;1904;50.076;8.660;2022-07-22T09:28:21;25.50;1.00
3778;DHT22;1904;50.076;8.660;2022-07-22T09:30:52;25.50;1.00
3778;DHT22;1904;50.076;8.660;2022-07-22T09:33:21;25.60;1.00
3778;DHT22;1904;50.076;8.660;2022-07-22T09:35:48;25.60;1.00
3778;DHT22;1904;50.076;8.660;2022-07-22T09:38:27;25.70;1.00
3778;DHT22;1904;50.076;8.660;2022-07-22T09:40:58;25.80;1.00
3778;DHT22;1904;50.076;8.660;2022-07-22T09:43:26;25.90;1.00
3778;DHT22;1904;50.076;8.660;2022-07-22T09:46:02;26.00;1.00
3778;DHT22;1904;50.076;8.660;2022-07-22T09:48:30;26.20;1.00
3778;DHT22;1904;50.076;8.660;2022-07-22T09:50:56;26.40;1.00
3778;DHT22;1904;50.076;8.660;2022-07-22T09:53:28;26.60;1.00
3778;DHT22;1904;50.076;8.660;2022-07-22T09:55:57;26.60;1.00
3778;DHT22;1904;50.076;8.660;2022-07-22T09:58:32;26.70;1.00
3778;DHT22;1904;50.076;8.660;2022-07-22T10:01:04;26.80;1.00
3778;DHT22;1904;50.076;8.660;2022-07-22T10:03:33;26.70;1.00
3778;DHT22;1904;50.076;8.660;2022-07-22T10:06:08;26.80;1.00
3778;DHT22;1904;50.076;8.660;2022-07-22T10:08:36;26.90;1.00
3778;DHT22;1904;50.076;8.660;2022-07-22T10:11:05;26.90;1.00
3778;DHT22;1904;50.076;8.660;2022-07-22T10:13:38;26.90;1.00
3778;DHT22;1904;50.076;8.660;2022-07-22T10:16:09;26.80;1.00
3778;DHT22;1904;50.076;8.660;2022-07-22T10:18:39;26.80;1.00
3778;DHT22;1904;50.076;8.660;2022-07-22T10:21:09;26.90;1.00
3778;DHT22;1904;50.076;8.660;2022-07-22T10:23:36;27.00;1.00
3778;DHT22;1904;50.076;8.660;2022-07-22T10:26:48;26.90;1.00
3778;DHT22;1904;50.076;8.660;2022-07-22T10:29:57;26.90;1.00
3778;DHT22;1904;50.076;8.660;2022-07-22T10:34:43;27.10;1.00
3778;DHT22;1904;50.076;8.660;2022-07-22T10:40:29;27.40;1.00
3778;DHT22;1904;50.076;8.660;2022-07-22T10:53:53;28.10;1.00
3778;DHT22;1904;50.076;8.660;2022-07-22T10:56:38;28.20;1.00
3778;DHT22;1904;50.076;8.660;2022-07-22T11:02:27;28.40;1.00
3778;DHT22;1904;50.076;8.660;2022-07-22T11:04:53;28.50;1.00
3778;DHT22;1904;50.076;8.660;2022-07-22T11:07:20;28.60;1.00
3778;DHT22;1904;50.076;8.660;2022-07-22T11:09:46;28.70;1.00
3778;DHT22;1904;50.076;8.660;2022-07-22T11:12:20;28.80;1.00
3778;DHT22;1904;50.076;8.660;2022-07-22T11:15:14;28.90;1.00
3778;DHT22;1904;50.076;8.660;2022-07-22T11:17:44;28.90;1.00
3778;DHT22;1904;50.076;8.660;2022-07-22T11:20:14;28.90;1.00
3778;DHT22;1904;50.076;8.660;2022-07-22T11:22:40;29.00;1.00
3778;DHT22;1904;50.076;8.660;2022-07-22T11:25:09;28.90;1.00
3778;DHT22;1904;50.076;8.660;2022-07-22T11:27:35;29.00;1.00
3778;DHT22;1904;50.076;8.660;2022-07-22T11:30:02;28.80;1.00
3778;DHT22;1904;50.076;8.660;2022-07-22T11:32:42;28.80;1.00
3778;DHT22;1904;50.076;8.660;2022-07-22T11:35:11;28.90;1.00
3778;DHT22;1904;50.076;8.660;2022-07-22T11:37:38;29.00;1.00
3778;DHT22;1904;50.076;8.660;2022-07-22T11:40:08;29.10;1.00
3778;DHT22;1904;50.076;8.660;2022-07-22T11:42:34;29.30;1.00
3778;DHT22;1904;50.076;8.660;2022-07-22T11:45:03;29.40;1.00
3778;DHT22;1904;50.076;8.660;2022-07-22T11:48:08;29.60;1.00
3778;DHT22;1904;50.076;8.660;2022-07-22T11:50:59;29.90;1.00
3778;DHT22;1904;50.076;8.660;2022-07-22T11:53:33;30.00;1.00
3778;DHT22;1904;50.076;8.660;2022-07-22T11:56:04;30.20;1.00
3778;DHT22;1904;50.076;8.660;2022-07-22T11:58:43;30.30;1.00
3778;DHT22;1904;50.076;8.660;2022-07-22T12:01:23;30.40;1.00
3778;DHT22;1904;50.076;8.660;2022-07-22T12:03:58;30.50;1.00
3778;DHT22;1904;50.076;8.660;2022-07-22T12:06:27;30.60;1.00
3778;DHT22;1904;50.076;8.660;2022-07-22T12:09:07;30.70;1.00
3778;DHT22;1904;50.076;8.660;2022-07-22T12:11:41;30.90;1.00
3778;DHT22;1904;50.076;8.660;2022-07-22T12:14:09;30.80;1.00
3778;DHT22;1904;50.076;8.660;2022-07-22T12:16:36;30.90;1.00
3778;DHT22;1904;50.076;8.660;2022-07-22T12:19:10;30.90;1.00
3778;DHT22;1904;50.076;8.660;2022-07-22T12:21:57;31.00;1.00
3778;DHT22;1904;50.076;8.660;2022-07-22T12:24:37;30.80;1.00
3778;DHT22;1904;50.076;8.660;2022-07-22T12:27:10;30.80;1.00
3778;DHT22;1904;50.076;8.660;2022-07-22T12:32:03;31.10;1.00
3778;DHT22;1904;50.076;8.660;2022-07-22T12:36:55;31.30;1.00
3778;DHT22;1904;50.076;8.660;2022-07-22T12:39:20;31.40;1.00
3778;DHT22;1904;50.076;8.660;2022-07-22T12:41:51;31.50;1.00
3778;DHT22;1904;50.076;8.660;2022-07-22T12:44:26;31.60;1.00
3778;DHT22;1904;50.076;8.660;2022-07-22T12:46:54;31.60;1.00
3778;DHT22;1904;50.076;8.660;2022-07-22T12:49:23;31.60;1.00
3778;DHT22;1904;50.076;8.660;2022-07-22T12:52:14;31.60;1.00
3778;DHT22;1904;50.076;8.660;2022-07-22T12:54:44;31.70;1.00
3778;DHT22;1904;50.076;8.660;2022-07-22T12:57:14;31.80;1.00
3778;DHT22;1904;50.076;8.660;2022-07-22T12:59:53;32.10;1.00
3778;DHT22;1904;50.076;8.660;2022-07-22T13:02:38;32.20;1.00
3778;DHT22;1904;50.076;8.660;2022-07-22T13:05:15;32.40;1.00
3778;DHT22;1904;50.076;8.660;2022-07-22T13:08:02;32.60;1.00
3778;DHT22;1904;50.076;8.660;2022-07-22T13:10:44;32.70;1.00
3778;DHT22;1904;50.076;8.660;2022-07-22T13:13:14;32.90;1.00
3778;DHT22;1904;50.076;8.660;2022-07-22T13:15:44;32.90;1.00
3778;DHT22;1904;50.076;8.660;2022-07-22T13:18:15;33.00;1.00
3778;DHT22;1904;50.076;8.660;2022-07-22T13:20:41;33.20;1.00
3778;DHT22;1904;50.076;8.660;2022-07-22T13:23:07;33.30;1.00
3778;DHT22;1904;50.076;8.660;2022-07-22T13:25:38;33.30;1.00
3778;DHT22;1904;50.076;8.660;2022-07-22T13:28:04;33.40;1.00
3778;DHT22;1904;50.076;8.660;2022-07-22T13:30:30;33.30;1.00
3778;DHT22;1904;50.076;8.660;2022-07-22T13:33:20;33.20;1.00
3778;DHT22;1904;50.076;8.660;2022-07-22T13:35:46;33.20;1.00
3778;DHT22;1904;50.076;8.660;2022-07-22T13:38:20;33.20;1.00
3778;DHT22;1904;50.076;8.660;2022-07-22T13:40:57;33.20;1.00
3778;DHT22;1904;50.076;8.660;2022-07-22T13:43:44;33.20;1.00
3778;DHT22;1904;50.076;8.660;2022-07-22T13:46:11;33.20;1.00
3778;DHT22;1904;50.076;8.660;2022-07-22T13:48:37;33.50;1.00
3778;DHT22;1904;50.076;8.660;2022-07-22T13:54:25;33.60;1.00
3778;DHT22;1904;50.076;8.660;2022-07-22T13:57:20;33.70;1.00
3778;DHT22;1904;50.076;8.660;2022-07-22T13:59:50;33.80;1.00
3778;DHT22;1904;50.076;8.660;2022-07-22T14:02:16;33.80;1.00
3778;DHT22;1904;50.076;8.660;2022-07-22T14:04:50;33.80;1.00
3778;DHT22;1904;50.076;8.660;2022-07-22T14:07:20;33.50;1.00
3778;DHT22;1904;50.076;8.660;2022-07-22T14:09:50;33.50;1.00
3778;DHT22;1904;50.076;8.660;2022-07-22T14:12:20;33.70;1.00
3778;DHT22;1904;50.076;8.660;2022-07-22T14:14:50;33.70;1.00
3778;DHT22;1904;50.076;8.660;2022-07-22T14:17:20;33.70;1.00
3778;DHT22;1904;50.076;8.660;2022-07-22T14:19:46;33.90;1.00
3778;DHT22;1904;50.076;8.660;2022-07-22T14:22:12;34.00;1.00
3778;DHT22;1904;50.076;8.660;2022-07-22T14:24:38;34.20;1.00
3778;DHT22;1904;50.076;8.660;2022-07-22T14:27:14;34.20;1.00
3778;DHT22;1904;50.076;8.660;2022-07-22T14:30:02;34.10;1.00
3778;DHT22;1904;50.076;8.660;2022-07-22T14:32:33;34.30;1.00
3778;DHT22;1904;50.076;8.660;2022-07-22T14:34:58;34.00;1.00
3778;DHT22;1904;50.076;8.660;2022-07-22T14:37:44;33.70;1.00
3778;DHT22;1904;50.076;8.660;2022-07-22T14:40:10;33.70;1.00
3778;DHT22;1904;50.076;8.660;2022-07-22T14:42:38;33.70;1.00
3778;DHT22;1904;50.076;8.660;2022-07-22T14:45:06;33.80;1.00
3778;DHT22;1904;50.076;8.660;2022-07-22T14:47:38;33.80;1.00
3778;DHT22;1904;50.076;8.660;2022-07-22T14:50:05;33.80;1.00
3778;DHT22;1904;50.076;8.660;2022-07-22T14:52:31;34.00;1.00
3778;DHT22;1904;50.076;8.660;2022-07-22T14:54:57;34.30;1.00
3778;DHT22;1904;50.076;8.660;2022-07-22T14:57:26;34.40;1.00
3778;DHT22;1904;50.076;8.660;2022-07-22T15:00:09;34.60;1.00
3778;DHT22;1904;50.076;8.660;2022-07-22T15:02:38;34.80;1.00
3778;DHT22;1904;50.076;8.660;2022-07-22T15:05:05;34.80;1.00
3778;DHT22;1904;50.076;8.660;2022-07-22T15:07:39;34.80;1.00
3778;DHT22;1904;50.076;8.660;2022-07-22T15:10:08;34.50;1.00
3778;DHT22;1904;50.076;8.660;2022-07-22T15:12:36;34.50;1.00
3778;DHT22;1904;50.076;8.660;2022-07-22T15:15:09;34.50;1.00
3778;DHT22;1904;50.076;8.660;2022-07-22T15:17:38;34.60;1.00
3778;DHT22;1904;50.076;8.660;2022-07-22T15:20:14;35.10;1.00
3778;DHT22;1904;50.076;8.660;2022-07-22T15:22:51;36.00;1.00
3778;DHT22;1904;50.076;8.660;2022-07-22T15:25:21;36.90;1.00
3778;DHT22;1904;50.076;8.660;2022-07-22T15:27:51;38.50;1.00
3778;DHT22;1904;50.076;8.660;2022-07-22T15:30:21;39.90;1.00
3778;DHT22;1904;50.076;8.660;2022-07-22T15:32:50;40.80;1.00
3778;DHT22;1904;50.076;8.660;2022-07-22T15:35:16;41.70;1.00
3778;DHT22;1904;50.076;8.660;2022-07-22T15:37:50;42.20;1.00
3778;DHT22;1904;50.076;8.660;2022-07-22T15:40:16;42.30;1.00
3778;DHT22;1904;50.076;8.660;2022-07-22T15:42:44;42.50;1.00
3778;DHT22;1904;50.076;8.660;2022-07-22T15:45:14;43.40;1.00
3778;DHT22;1904;50.076;8.660;2022-07-22T15:50:57;45.70;1.00
3778;DHT22;1904;50.076;8.660;2022-07-22T15:53:33;46.70;1.00
3778;DHT22;1904;50.076;8.660;2022-07-22T15:55:59;47.20;1.00
3778;DHT22;1904;50.076;8.660;2022-07-22T15:58:27;47.90;1.00
3778;DHT22;1904;50.076;8.660;2022-07-22T16:01:15;48.10;1.00
3778;DHT22;1904;50.076;8.660;2022-07-22T16:04:14;48.10;1.00
3778;DHT22;1904;50.076;8.660;2022-07-22T16:06:57;48.40;1.00
3778;DHT22;1904;50.076;8.660;2022-07-22T16:09:23;48.90;1.00
3778;DHT22;1904;50.076;8.660;2022-07-22T16:11:49;49.10;1.00
3778;DHT22;1904;50.076;8.660;2022-07-22T16:14:21;48.50;1.00
3778;DHT22;1904;50.076;8.660;2022-07-22T16:16:49;48.50;1.00
3778;DHT22;1904;50.076;8.660;2022-07-22T16:19:24;48.80;1.00
3778;DHT22;1904;50.076;8.660;2022-07-22T16:21:51;48.80;1.00
3778;DHT22;1904;50.076;8.660;2022-07-22T16:24:17;48.80;1.00
3778;DHT22;1904;50.076;8.660;2022-07-22T16:26:43;48.20;1.00
3778;DHT22;1904;50.076;8.660;2022-07-22T16:29:21;48.10;1.00
3778;DHT22;1904;50.076;8.660;2022-07-22T16:31:47;47.60;1.00
3778;DHT22;1904;50.076;8.660;2022-07-22T16:34:13;47.60;1.00
3778;DHT22;1904;50.076;8.660;2022-07-22T16:36:38;48.10;1.00
3778;DHT22;1904;50.076;8.660;2022-07-22T16:39:04;48.20;1.00
3778;DHT22;1904;50.076;8.660;2022-07-22T16:41:39;48.50;1.00
3778;DHT22;1904;50.076;8.660;2022-07-22T16:44:09;48.60;1.00
3778;DHT22;1904;50.076;8.660;2022-07-22T16:46:38;48.70;1.00
3778;DHT22;1904;50.076;8.660;2022-07-22T16:49:04;47.80;1.00
3778;DHT22;1904;50.076;8.660;2022-07-22T16:51:33;46.40;1.00
3778;DHT22;1904;50.076;8.660;2022-07-22T16:53:59;45.40;1.00
3778;DHT22;1904;50.076;8.660;2022-07-22T16:56:50;44.90;1.00
3778;DHT22;1904;50.076;8.660;2022-07-22T16:59:16;44.80;1.00
3778;DHT22;1904;50.076;8.660;2022-07-22T17:01:51;44.50;1.00
3778;DHT22;1904;50.076;8.660;2022-07-22T17:04:16;44.30;1.00
3778;DHT22;1904;50.076;8.660;2022-07-22T17:06:44;44.50;1.00
3778;DHT22;1904;50.076;8.660;2022-07-22T17:09:10;45.10;1.00
3778;DHT22;1904;50.076;8.660;2022-07-22T17:11:39;45.50;1.00
3778;DHT22;1904;50.076;8.660;2022-07-22T17:14:21;45.10;1.00
3778;DHT22;1904;50.076;8.660;2022-07-22T17:16:50;45.40;1.00
3778;DHT22;1904;50.076;8.660;2022-07-22T17:19:21;46.00;1.00
3778;DHT22;1904;50.076;8.660;2022-07-22T17:21:47;46.80;1.00
3778;DHT22;1904;50.076;8.660;2022-07-22T17:24:13;47.20;1.00
3778;DHT22;1904;50.076;8.660;2022-07-22T17:26:39;47.90;1.00
3778;DHT22;1904;50.076;8.660;2022-07-22T17:29:04;48.50;1.00
3778;DHT22;1904;50.076;8.660;2022-07-22T17:31:30;48.80;1.00
3778;DHT22;1904;50.076;8.660;2022-07-22T17:33:57;48.50;1.00
3778;DHT22;1904;50.076;8.660;2022-07-22T17:36:56;48.10;1.00
3778;DHT22;1904;50.076;8.660;2022-07-22T17:39:26;47.70;1.00
3778;DHT22;1904;50.076;8.660;2022-07-22T17:41:52;45.80;1.00
3778;DHT22;1904;50.076;8.660;2022-07-22T17:44:38;45.70;1.00
3778;DHT22;1904;50.076;8.660;2022-07-22T17:47:04;44.10;1.00